Elba, New York
Current Conditions -  °F | °C
As of 9:54 PM on Tuesday 21 Oct 2014 (Local Time) from KROC Reporting Station
Light Rain Light Rain  
Wind Chill: 40°   Ceiling: 600
Heat Index: 47°   Visibility: 4mi
Dew Point: 45°   Wind: 18mph
Humidity: 93%   Direction: 30°NNE
Pressure: 30.06"   Gusts: NA
Location:  43.08°N, 78.19°W
Report Text: KROC 220154Z 03016KT 4SM -RA BR OVC006 08/07 A3006 RMK AO2 CIG 005V010 SLP184 P0003 T00830072
Loading
Personal Weather Stations






























Interactive Weather Map
Tropical Storm Tracking
New forecast layout! Learn more

10-Day Weather Forecast

Advertisements
Track Severe Weather on mobile